Modesto, California
Current Conditions -  °F | °C
As of 7:53 PM on Friday 24 Oct 2014 (Local Time) from KMOD Reporting Station
Clear Clear  
Wind Chill: 69°   Ceiling: Unl
Heat Index: 69°   Visibility: 10mi
Dew Point: 54°   Wind: 6mph
Humidity: 58%   Direction: 320°NW
Pressure: 29.86"   Gusts: NA
Location:  37.64°N, 120.99°W
Report Text: KMOD 250253Z 32005KT 10SM CLR 21/12 A2986 RMK AO2 SLP113 T02060122 53010
Loading
Personal Weather Stations






























Interactive Weather Map New forecast layout! Learn more

10-Day Weather Forecast

Advertisements
Track Severe Weather on mobile